地図

経路データ

SID SEASON NUMBER BASIN SUBBASIN NAME ISO_TIME NATURE LAT LON WMO_WIND WMO_PRES WMO_AGENCY TRACK_TYPE DIST2LAND LANDFALL IFLAG USA_AGENCY USA_ATCF_ID USA_LAT USA_LON USA_RECORD USA_STATUS USA_WIND USA_PRES USA_SSHS USA_R34_NE USA_R34_SE USA_R34_SW USA_R34_NW USA_R50_NE USA_R50_SE USA_R50_SW USA_R50_NW USA_R64_NE USA_R64_SE USA_R64_SW USA_R64_NW USA_POCI USA_ROCI USA_RMW USA_EYE TOKYO_LAT TOKYO_LON TOKYO_GRADE TOKYO_WIND TOKYO_PRES TOKYO_R50_DIR TOKYO_R50_LONG TOKYO_R50_SHORT TOKYO_R30_DIR TOKYO_R30_LONG TOKYO_R30_SHORT TOKYO_LAND CMA_LAT CMA_LON CMA_CAT CMA_WIND CMA_PRES HKO_LAT HKO_LON HKO_CAT HKO_WIND HKO_PRES NEWDELHI_LAT NEWDELHI_LON NEWDELHI_GRADE NEWDELHI_WIND NEWDELHI_PRES NEWDELHI_CI NEWDELHI_DP NEWDELHI_POCI REUNION_LAT REUNION_LON REUNION_TYPE REUNION_WIND REUNION_PRES REUNION_TNUM REUNION_CI REUNION_RMW REUNION_R34_NE REUNION_R34_SE REUNION_R34_SW REUNION_R34_NW REUNION_R50_NE REUNION_R50_SE REUNION_R50_SW REUNION_R50_NW REUNION_R64_NE REUNION_R64_SE REUNION_R64_SW REUNION_R64_NW BOM_LAT BOM_LON BOM_TYPE BOM_WIND BOM_PRES BOM_TNUM BOM_CI BOM_RMW BOM_R34_NE BOM_R34_SE BOM_R34_SW BOM_R34_NW BOM_R50_NE BOM_R50_SE BOM_R50_SW BOM_R50_NW BOM_R64_NE BOM_R64_SE BOM_R64_SW BOM_R64_NW BOM_ROCI BOM_POCI BOM_EYE BOM_POS_METHOD BOM_PRES_METHOD NADI_LAT NADI_LON NADI_CAT NADI_WIND NADI_PRES WELLINGTON_LAT WELLINGTON_LON WELLINGTON_WIND WELLINGTON_PRES DS824_LAT DS824_LON DS824_STAGE DS824_WIND DS824_PRES TD9636_LAT TD9636_LON TD9636_STAGE TD9636_WIND TD9636_PRES TD9635_LAT TD9635_LON TD9635_WIND TD9635_PRES TD9635_ROCI NEUMANN_LAT NEUMANN_LON NEUMANN_CLASS NEUMANN_WIND NEUMANN_PRES MLC_LAT MLC_LON MLC_CLASS MLC_WIND MLC_PRES USA_GUST BOM_GUST BOM_GUST_PER REUNION_GUST REUNION_GUST_PER USA_SEAHGT USA_SEARAD_NE USA_SEARAD_SE USA_SEARAD_SW USA_SEARAD_NW STORM_SPEED STORM_DIR
1997161N14266 1997 39 EP MM BLANCA 1997-06-09 18:00:00 TS 14.1000 -94.5000 30 1009 hurdat_epa main 209 183 O_____________ hurdat_epa EP021997 14.1000 -94.5000 TD 30 1009 -1 12 298
1997161N14266 1997 39 EP MM BLANCA 1997-06-09 21:00:00 TS 14.3752 -95.0347 main 183 138 P_____________ EP021997 14.3752 -95.0347 TD 32 1007 -1 12 295
1997161N14266 1997 39 EP MM BLANCA 1997-06-10 00:00:00 TS 14.6000 -95.6000 35 1005 hurdat_epa main 138 109 O_____________ hurdat_epa EP021997 14.6000 -95.6000 TS 35 1005 0 12 288
1997161N14266 1997 39 EP MM BLANCA 1997-06-10 03:00:00 TS 14.7373 -96.2201 main 109 89 P_____________ EP021997 14.7373 -96.2201 TS 37 1004 0 13 279
1997161N14266 1997 39 EP MM BLANCA 1997-06-10 06:00:00 TS 14.8000 -96.9000 40 1003 hurdat_epa main 95 95 O_____________ hurdat_epa EP021997 14.8000 -96.9000 TS 40 1003 0 14 273
1997161N14266 1997 39 EP MM BLANCA 1997-06-10 09:00:00 TS 14.7998 -97.6278 main 129 129 P_____________ EP021997 14.7998 -97.6278 TS 40 1003 0 15 270
1997161N14266 1997 39 EP MM BLANCA 1997-06-10 12:00:00 TS 14.8000 -98.4000 40 1003 hurdat_epa main 148 148 O_____________ hurdat_epa EP021997 14.8000 -98.4000 TS 40 1003 0 15 274
1997161N14266 1997 39 EP MM BLANCA 1997-06-10 15:00:00 TS 14.8999 -99.1997 main 169 169 P_____________ EP021997 14.8999 -99.1997 TS 40 1003 0 16 277
1997161N14266 1997 39 EP MM BLANCA 1997-06-10 18:00:00 TS 15.0000 -100.000 40 1003 hurdat_epa main 192 192 O_____________ hurdat_epa EP021997 15.0000 -100.000 TS 40 1003 0 15 274
1997161N14266 1997 39 EP MM BLANCA 1997-06-10 21:00:00 TS 14.9998 -100.765 main 223 223 P_____________ EP021997 14.9998 -100.765 TS 40 1002 0 15 270
1997161N14266 1997 39 EP MM BLANCA 1997-06-11 00:00:00 TS 15.0000 -101.500 40 1002 hurdat_epa main 257 257 O_____________ hurdat_epa EP021997 15.0000 -101.500 TS 40 1002 0 14 273
1997161N14266 1997 39 EP MM BLANCA 1997-06-11 03:00:00 TS 15.0772 -102.207 main 272 272 P_____________ EP021997 15.0772 -102.207 TS 37 1003 0 14 278
1997161N14266 1997 39 EP MM BLANCA 1997-06-11 06:00:00 TS 15.2000 -102.900 35 1004 hurdat_epa main 303 303 O_____________ hurdat_epa EP021997 15.2000 -102.900 TS 35 1004 0 14 281
1997161N14266 1997 39 EP MM BLANCA 1997-06-11 09:00:00 TS 15.3423 -103.600 main 320 309 P_____________ EP021997 15.3423 -103.600 TS 35 1004 0 14 283
1997161N14266 1997 39 EP MM BLANCA 1997-06-11 12:00:00 TS 15.5000 -104.300 35 1005 hurdat_epa main 324 324 O_____________ hurdat_epa EP021997 15.5000 -104.300 TS 35 1005 0 14 283
1997161N14266 1997 39 EP MM BLANCA 1997-06-11 15:00:00 TS 15.6422 -104.993 main 341 331 P_____________ EP021997 15.6422 -104.993 TS 35 1005 0 14 283
1997161N14266 1997 39 EP MM BLANCA 1997-06-11 18:00:00 TS 15.8000 -105.700 35 1006 hurdat_epa main 364 364 O_____________ hurdat_epa EP021997 15.8000 -105.700 TS 35 1006 0 14 284
1997161N14266 1997 39 EP MM BLANCA 1997-06-11 21:00:00 TS 15.9923 -106.443 main 396 396 P_____________ EP021997 15.9923 -106.443 TS 32 1006 -1 15 286
1997161N14266 1997 39 EP MM BLANCA 1997-06-12 00:00:00 TS 16.2000 -107.200 30 1007 hurdat_epa main 421 421 O_____________ hurdat_epa EP021997 16.2000 -107.200 TD 30 1007 -1 15 286
1997161N14266 1997 39 EP MM BLANCA 1997-06-12 03:00:00 TS 16.4030 -107.952 main 461 461 P_____________ EP021997 16.4030 -107.952 TD 27 1007 -1 15 286
1997161N14266 1997 39 EP MM BLANCA 1997-06-12 06:00:00 TS 16.6000 -108.700 25 1008 hurdat_epa main 499 O_____________ hurdat_epa EP021997 16.6000 -108.700 TD 25 1008 -1 15 285

IBTrACS Databaseについて

本データベースは、米国NOAAが公開する1842年以降の世界の熱帯低気圧のベストトラックデータアーカイブInternational Best Track Archive for Climate Stewardship (IBTrACS)を、ウェブで閲覧しやすい形式に変換したものです。

最終更新日:2021-10-21